createdAt,value
2022-08-31T00:01:28.941Z,7.10
2022-08-31T00:04:32.600Z,7.30
2022-08-31T00:07:35.689Z,6.87
2022-08-31T00:10:44.909Z,8.00
2022-08-31T00:13:47.334Z,7.23
2022-08-31T00:16:59.405Z,6.60
2022-08-31T00:20:01.386Z,7.13
2022-08-31T00:23:05.484Z,7.13
2022-08-31T00:26:07.994Z,7.03
2022-08-31T00:29:10.686Z,7.03
2022-08-31T00:32:13.144Z,7.43
2022-08-31T00:35:15.069Z,7.00
2022-08-31T00:38:17.417Z,6.90
2022-08-31T00:41:23.477Z,6.50
2022-08-31T00:44:25.566Z,7.17
2022-08-31T00:47:27.508Z,7.10
2022-08-31T00:50:29.465Z,7.07
2022-08-31T00:53:31.478Z,6.73
2022-08-31T00:56:34.794Z,8.20
2022-08-31T00:59:37.808Z,7.10
2022-08-31T01:02:40.222Z,7.33
2022-08-31T01:05:42.683Z,7.30
2022-08-31T01:08:46.418Z,7.27
2022-08-31T01:11:48.568Z,7.60
2022-08-31T01:14:50.609Z,7.63
2022-08-31T01:17:54.904Z,7.20
2022-08-31T01:21:37.544Z,6.90
2022-08-31T01:24:42.859Z,7.23
2022-08-31T01:27:45.008Z,7.30
2022-08-31T01:31:08.130Z,7.10
2022-08-31T01:34:10.643Z,7.50
2022-08-31T01:37:13.431Z,7.23
2022-08-31T01:40:18.385Z,7.27
2022-08-31T01:43:21.163Z,7.60
2022-08-31T01:46:23.877Z,7.20
2022-08-31T01:49:25.894Z,7.57
2022-08-31T01:52:28.683Z,7.00
2022-08-31T01:55:31.149Z,7.37
2022-08-31T01:58:33.254Z,7.07
2022-08-31T02:01:39.868Z,7.10
2022-08-31T02:04:42.045Z,7.07
2022-08-31T02:07:44.288Z,6.43
2022-08-31T02:10:46.623Z,6.73
2022-08-31T02:13:48.588Z,6.37
2022-08-31T02:16:51.237Z,6.27
2022-08-31T02:19:53.186Z,6.53
2022-08-31T02:22:55.178Z,6.70
2022-08-31T02:25:57.651Z,6.93
2022-08-31T02:28:59.655Z,6.90
2022-08-31T02:32:01.932Z,6.27
2022-08-31T02:35:05.046Z,6.90
2022-08-31T02:38:07.145Z,6.67
2022-08-31T02:41:09.194Z,7.67
2022-08-31T02:44:11.213Z,6.73
2022-08-31T02:47:13.286Z,7.00
2022-08-31T02:50:15.352Z,7.13
2022-08-31T02:53:19.387Z,7.60
2022-08-31T02:56:21.533Z,7.43
2022-08-31T02:59:23.428Z,7.50
2022-08-31T03:02:32.157Z,8.17
2022-08-31T03:05:34.453Z,7.47
2022-08-31T03:08:36.789Z,7.37
2022-08-31T03:11:38.727Z,7.23
2022-08-31T03:14:40.673Z,7.93
2022-08-31T03:17:42.943Z,6.40
2022-08-31T03:20:44.852Z,6.53
2022-08-31T03:23:46.912Z,6.73
2022-08-31T03:26:49.988Z,6.90
2022-08-31T03:29:53.089Z,6.47
2022-08-31T03:32:57.255Z,6.60
2022-08-31T03:36:05.838Z,6.50
2022-08-31T03:39:07.838Z,7.27
2022-08-31T03:42:09.837Z,6.50
2022-08-31T03:45:12.503Z,6.63
2022-08-31T03:48:14.538Z,7.17
2022-08-31T03:51:18.542Z,9.70
2022-08-31T03:54:20.849Z,8.73
2022-08-31T03:57:22.872Z,9.33
2022-08-31T04:00:25.643Z,8.67
2022-08-31T04:03:30.573Z,9.53
2022-08-31T04:06:32.668Z,9.67
2022-08-31T04:09:34.667Z,8.57
2022-08-31T04:12:36.679Z,9.10
2022-08-31T04:15:39.853Z,9.23
2022-08-31T04:18:44.093Z,9.77
2022-08-31T04:21:47.585Z,9.93
2022-08-31T04:24:49.553Z,10.20
2022-08-31T04:27:52.127Z,11.73
2022-08-31T04:30:54.731Z,10.83
2022-08-31T04:33:57.727Z,9.67
2022-08-31T04:36:59.748Z,10.13
2022-08-31T04:40:04.278Z,10.27
2022-08-31T04:43:06.947Z,9.67
2022-08-31T04:46:09.279Z,10.33
2022-08-31T04:49:11.883Z,8.87
2022-08-31T04:52:14.250Z,9.27
2022-08-31T04:55:17.343Z,10.93
2022-08-31T04:58:20.839Z,10.23
2022-08-31T05:01:25.345Z,9.97
2022-08-31T05:04:29.548Z,10.37
2022-08-31T05:07:31.518Z,10.73
2022-08-31T05:10:33.550Z,11.50
2022-08-31T05:13:35.468Z,11.57
2022-08-31T05:16:39.587Z,10.33
2022-08-31T05:19:42.017Z,10.43
2022-08-31T05:22:43.913Z,10.30
2022-08-31T05:25:47.332Z,10.60
2022-08-31T05:28:50.199Z,10.43
2022-08-31T05:31:52.892Z,10.07
2022-08-31T05:34:55.042Z,10.27
2022-08-31T05:37:57.218Z,11.23
2022-08-31T05:40:59.141Z,11.20
2022-08-31T05:53:43.897Z,10.10
2022-08-31T05:56:46.127Z,9.90
2022-08-31T05:59:50.878Z,10.80
2022-08-31T06:02:55.496Z,10.13
2022-08-31T06:05:57.770Z,11.03
2022-08-31T06:08:59.813Z,10.90
2022-08-31T06:12:01.991Z,11.73
2022-08-31T06:15:05.372Z,11.50
2022-08-31T06:18:08.458Z,10.47
2022-08-31T06:21:12.823Z,11.57
2022-08-31T06:24:15.053Z,12.87
2022-08-31T06:27:18.283Z,11.20
2022-08-31T06:30:21.238Z,10.43
2022-08-31T06:33:23.312Z,10.10
2022-08-31T06:36:28.174Z,10.13
2022-08-31T06:39:30.568Z,10.40
2022-08-31T06:42:32.598Z,10.60
2022-08-31T06:45:34.583Z,10.70
2022-08-31T06:48:37.113Z,10.93
2022-08-31T06:51:39.204Z,11.13
2022-08-31T06:54:41.589Z,10.43
2022-08-31T06:57:43.648Z,9.77
2022-08-31T07:00:46.268Z,9.53
2022-08-31T07:03:50.629Z,9.70
2022-08-31T07:06:52.580Z,9.63
2022-08-31T07:09:54.775Z,10.63
2022-08-31T07:12:56.694Z,10.47
2022-08-31T07:16:07.200Z,10.20
2022-08-31T07:19:10.670Z,11.03
2022-08-31T07:22:15.306Z,10.50
2022-08-31T07:25:18.450Z,10.40
2022-08-31T07:28:20.424Z,11.07
2022-08-31T07:31:26.474Z,10.63
2022-08-31T07:34:30.965Z,11.03
2022-08-31T07:37:51.800Z,10.70
2022-08-31T07:41:12.629Z,10.07
2022-08-31T07:44:16.970Z,9.73
2022-08-31T07:47:22.620Z,9.93
2022-08-31T07:50:27.266Z,10.80
2022-08-31T07:53:29.320Z,9.87
2022-08-31T07:56:34.864Z,10.23
2022-08-31T07:59:39.664Z,10.47
2022-08-31T08:02:50.833Z,9.50
2022-08-31T08:05:56.227Z,9.60
2022-08-31T08:09:22.294Z,10.07
2022-08-31T08:12:28.015Z,8.27
2022-08-31T08:15:32.155Z,8.93
2022-08-31T08:18:34.550Z,9.23
2022-08-31T08:21:36.770Z,9.25
2022-08-31T08:24:40.418Z,8.90
2022-08-31T08:27:42.860Z,8.67
2022-08-31T08:30:46.155Z,8.47
2022-08-31T08:33:48.230Z,8.90
2022-08-31T08:36:50.390Z,8.70
2022-08-31T08:39:52.726Z,8.90
2022-08-31T08:42:54.887Z,7.13
2022-08-31T08:45:57.483Z,6.80
2022-08-31T08:49:01.239Z,7.90
2022-08-31T08:52:31.027Z,8.03
2022-08-31T08:55:38.626Z,9.37
2022-08-31T08:58:44.020Z,8.07
2022-08-31T09:01:48.862Z,8.77
2022-08-31T09:05:04.694Z,8.40
2022-08-31T09:08:43.993Z,7.70
2022-08-31T09:11:52.872Z,7.70
2022-08-31T09:15:15.772Z,8.70
2022-08-31T09:18:26.650Z,6.30
2022-08-31T09:21:34.545Z,5.78
2022-08-31T09:24:38.818Z,5.85
2022-08-31T09:27:46.682Z,6.55
2022-08-31T09:30:55.287Z,6.82
2022-08-31T09:33:57.298Z,6.63
2022-08-31T09:37:22.189Z,5.75
2022-08-31T09:40:48.742Z,6.88
2022-08-31T09:43:50.699Z,5.80
2022-08-31T09:46:56.802Z,5.75
2022-08-31T09:49:58.690Z,5.63
2022-08-31T09:53:43.200Z,6.20
2022-08-31T09:57:02.780Z,6.90
2022-08-31T10:00:05.325Z,6.95
2022-08-31T10:03:21.158Z,7.18
2022-08-31T10:06:35.828Z,6.72
2022-08-31T10:09:47.453Z,6.93
2022-08-31T10:12:58.308Z,7.30
2022-08-31T10:16:03.690Z,8.67
2022-08-31T10:19:16.663Z,10.10
2022-08-31T10:23:14.692Z,10.63
2022-08-31T10:26:19.493Z,10.50
2022-08-31T10:29:41.708Z,10.73
2022-08-31T10:32:57.513Z,10.07
2022-08-31T10:36:00.933Z,11.53
2022-08-31T10:39:03.923Z,11.17
2022-08-31T10:42:11.123Z,10.60
2022-08-31T10:45:24.589Z,11.67
2022-08-31T10:48:26.765Z,11.97
2022-08-31T10:52:05.454Z,10.33
2022-08-31T10:55:37.762Z,10.57
2022-08-31T10:59:02.393Z,10.53
2022-08-31T11:02:27.433Z,10.27
2022-08-31T11:05:50.735Z,10.90
2022-08-31T11:09:08.363Z,11.02
2022-08-31T11:12:21.824Z,10.63
2022-08-31T11:15:31.309Z,10.50
2022-08-31T11:18:46.458Z,8.45
2022-08-31T11:21:57.196Z,9.55
2022-08-31T11:25:37.986Z,8.50
2022-08-31T11:28:59.045Z,8.32
2022-08-31T11:32:15.258Z,8.27
2022-08-31T11:36:06.131Z,8.10
2022-08-31T11:39:08.800Z,6.70
2022-08-31T11:42:27.744Z,6.07
2022-08-31T11:45:33.259Z,5.63
2022-08-31T11:49:00.129Z,6.13
2022-08-31T11:52:05.901Z,5.63
2022-08-31T11:55:21.336Z,9.90
2022-08-31T11:58:32.143Z,10.13
2022-08-31T12:01:36.009Z,10.48
2022-08-31T12:04:46.708Z,10.80
2022-08-31T12:07:48.783Z,11.07
2022-08-31T12:11:05.718Z,10.67
2022-08-31T12:14:29.205Z,11.17
2022-08-31T12:17:33.144Z,10.10
2022-08-31T12:21:18.023Z,11.63
2022-08-31T12:24:40.224Z,10.37
2022-08-31T12:28:16.355Z,9.90
2022-08-31T12:31:20.520Z,10.97
2022-08-31T12:34:23.758Z,9.33
2022-08-31T12:37:34.516Z,11.20
2022-08-31T12:41:03.797Z,11.47
2022-08-31T12:44:05.801Z,11.13
2022-08-31T12:47:31.773Z,10.90
2022-08-31T12:50:46.504Z,10.27
2022-08-31T12:54:02.672Z,10.27
2022-08-31T12:57:25.684Z,10.83
2022-08-31T13:00:33.067Z,10.90
2022-08-31T13:03:35.240Z,11.37
2022-08-31T13:06:39.038Z,11.90
2022-08-31T13:09:43.013Z,10.97
2022-08-31T13:13:08.139Z,9.33
2022-08-31T13:16:12.660Z,8.97
2022-08-31T13:19:35.578Z,9.70
2022-08-31T13:22:44.902Z,9.27
2022-08-31T13:25:51.778Z,9.43
2022-08-31T13:28:54.353Z,8.73
2022-08-31T13:31:56.330Z,9.37
2022-08-31T13:35:04.458Z,8.00
2022-08-31T13:38:08.904Z,8.50
2022-08-31T13:41:36.763Z,8.07
2022-08-31T13:44:46.363Z,8.47
2022-08-31T13:48:10.623Z,8.73
2022-08-31T13:51:19.610Z,8.93
2022-08-31T13:54:41.938Z,9.60
2022-08-31T13:58:00.052Z,9.87
2022-08-31T14:01:23.708Z,6.90
2022-08-31T14:04:44.275Z,7.57
2022-08-31T14:07:47.009Z,7.63
2022-08-31T14:10:49.912Z,6.07
2022-08-31T14:13:52.890Z,6.40
2022-08-31T14:16:57.755Z,6.63
2022-08-31T14:20:34.149Z,6.97
2022-08-31T14:23:45.317Z,7.10
2022-08-31T14:26:47.255Z,6.67
2022-08-31T14:29:49.468Z,7.63
2022-08-31T14:32:51.398Z,6.73
2022-08-31T14:35:54.949Z,7.67
2022-08-31T14:38:57.635Z,8.20
2022-08-31T14:42:02.993Z,7.77
2022-08-31T14:45:18.858Z,8.87
2022-08-31T14:48:21.106Z,8.80
2022-08-31T14:51:24.208Z,8.17
2022-08-31T14:54:28.711Z,8.60
2022-08-31T14:57:32.357Z,8.63
2022-08-31T15:00:41.882Z,8.17
2022-08-31T15:03:45.362Z,7.60
2022-08-31T15:06:54.159Z,7.33
2022-08-31T15:09:56.124Z,6.83
2022-08-31T15:13:05.702Z,7.03
2022-08-31T15:16:08.534Z,8.20
2022-08-31T15:19:13.858Z,8.10
2022-08-31T15:22:16.195Z,8.43
2022-08-31T15:25:20.038Z,8.90
2022-08-31T15:28:22.284Z,8.37
2022-08-31T15:31:27.348Z,7.23
2022-08-31T15:34:31.634Z,8.37
2022-08-31T15:37:33.754Z,8.00
2022-08-31T15:40:39.038Z,8.33
2022-08-31T15:43:41.753Z,9.00
2022-08-31T15:47:03.878Z,8.33
2022-08-31T15:50:06.742Z,8.43
2022-08-31T15:53:10.921Z,8.53
2022-08-31T15:56:13.062Z,9.10
2022-08-31T15:59:16.103Z,9.23
2022-08-31T16:02:21.336Z,9.57
2022-08-31T16:05:28.498Z,9.30
2022-08-31T16:08:30.724Z,7.93
2022-08-31T16:11:37.130Z,8.13
2022-08-31T16:14:41.962Z,8.80
2022-08-31T16:17:44.175Z,8.20
2022-08-31T16:20:49.368Z,9.37
2022-08-31T16:24:00.969Z,8.93
2022-08-31T16:27:06.603Z,7.27
2022-08-31T16:30:11.384Z,7.10
2022-08-31T16:33:13.424Z,7.90
2022-08-31T16:36:20.542Z,9.00
2022-08-31T16:39:26.344Z,8.80
2022-08-31T16:42:29.892Z,10.00
2022-08-31T16:45:31.899Z,9.93
2022-08-31T16:48:52.384Z,8.90
2022-08-31T16:51:54.483Z,9.20
2022-08-31T16:54:57.547Z,8.93
2022-08-31T16:57:59.677Z,11.03
2022-08-31T17:01:12.881Z,9.93
2022-08-31T17:04:29.511Z,9.67
2022-08-31T17:07:42.950Z,10.47
2022-08-31T17:10:46.389Z,9.87
2022-08-31T17:13:49.882Z,9.47
2022-08-31T17:16:53.009Z,10.33
2022-08-31T17:19:58.568Z,10.07
2022-08-31T17:23:00.587Z,9.43
2022-08-31T17:26:06.557Z,8.97
2022-08-31T17:29:09.937Z,9.40
2022-08-31T17:32:15.276Z,8.97
2022-08-31T17:35:18.781Z,9.13
2022-08-31T17:38:21.349Z,8.83
2022-08-31T17:41:26.877Z,8.77
2022-08-31T17:44:31.064Z,8.73
2022-08-31T17:47:33.479Z,8.53
2022-08-31T17:50:35.432Z,8.47
2022-08-31T17:53:37.872Z,8.80
2022-08-31T17:56:56.423Z,9.03
2022-08-31T17:59:58.513Z,9.30
2022-08-31T18:03:00.487Z,8.83
2022-08-31T18:06:02.692Z,9.57
2022-08-31T18:09:05.060Z,9.00
2022-08-31T18:12:08.177Z,9.47
2022-08-31T18:15:11.961Z,9.17
2022-08-31T18:18:14.831Z,9.00
2022-08-31T18:21:22.902Z,9.80
2022-08-31T18:24:25.605Z,9.93
2022-08-31T18:27:27.674Z,10.10
2022-08-31T18:30:34.984Z,9.50
2022-08-31T18:33:39.956Z,9.83
2022-08-31T18:36:43.608Z,10.03
2022-08-31T18:40:07.721Z,9.23
2022-08-31T18:43:29.543Z,9.87
2022-08-31T18:46:31.644Z,9.20
2022-08-31T18:49:42.059Z,9.80
2022-08-31T18:52:48.464Z,10.27
2022-08-31T18:55:50.535Z,10.17
2022-08-31T18:58:52.919Z,10.23
2022-08-31T19:01:55.491Z,9.83
2022-08-31T19:04:57.769Z,9.83
2022-08-31T19:08:00.693Z,9.17
2022-08-31T19:11:07.300Z,10.30
2022-08-31T19:14:09.894Z,9.40
2022-08-31T19:17:11.939Z,9.33
2022-08-31T19:20:13.914Z,8.83
2022-08-31T19:23:20.043Z,9.53
2022-08-31T19:26:26.970Z,8.83
2022-08-31T19:29:31.406Z,9.43
2022-08-31T19:32:34.079Z,9.13
2022-08-31T19:35:36.511Z,9.83
2022-08-31T19:38:42.974Z,9.80
2022-08-31T19:41:53.285Z,9.70
2022-08-31T19:45:22.861Z,9.40
2022-08-31T19:48:23.934Z,9.37
2022-08-31T19:51:28.213Z,10.87
2022-08-31T19:54:39.213Z,12.07
2022-08-31T19:57:43.681Z,12.93
2022-08-31T20:00:47.291Z,12.77
2022-08-31T20:03:56.881Z,12.47
2022-08-31T20:06:59.478Z,12.13
2022-08-31T20:10:02.200Z,11.90
2022-08-31T20:13:05.374Z,11.70
2022-08-31T20:16:14.643Z,11.60
2022-08-31T20:19:25.043Z,10.60
2022-08-31T20:22:30.018Z,11.00
2022-08-31T20:25:32.038Z,11.13
2022-08-31T20:28:35.119Z,10.73
2022-08-31T20:31:43.389Z,10.63
2022-08-31T20:34:46.349Z,11.43
2022-08-31T20:37:48.339Z,11.40
2022-08-31T20:40:53.239Z,12.07
2022-08-31T20:43:57.444Z,11.83
2022-08-31T20:47:21.230Z,12.13
2022-08-31T20:50:23.729Z,11.20
2022-08-31T20:53:43.153Z,12.23
2022-08-31T20:56:46.726Z,13.13
2022-08-31T20:59:51.902Z,13.60
2022-08-31T21:02:54.406Z,13.40
2022-08-31T21:05:56.348Z,14.67
2022-08-31T21:08:58.393Z,13.63
2022-08-31T21:12:01.546Z,13.20
2022-08-31T21:15:04.805Z,13.80
2022-08-31T21:18:06.748Z,13.43
2022-08-31T21:21:15.453Z,13.57
2022-08-31T21:24:19.813Z,14.20
2022-08-31T21:27:21.768Z,14.57
2022-08-31T21:30:23.837Z,13.43
2022-08-31T21:33:25.963Z,13.57
2022-08-31T21:36:29.711Z,13.47
2022-08-31T21:39:36.709Z,13.87
2022-08-31T21:42:38.774Z,13.40
2022-08-31T21:45:48.326Z,13.50
2022-08-31T21:49:00.432Z,14.93
2022-08-31T21:52:02.543Z,13.77
2022-08-31T21:55:05.993Z,14.30
2022-08-31T21:58:07.954Z,15.00
2022-08-31T22:01:18.965Z,15.27
2022-08-31T22:04:21.567Z,15.57
2022-08-31T22:07:23.556Z,15.50
2022-08-31T22:10:25.804Z,15.53
2022-08-31T22:13:27.824Z,15.13
2022-08-31T22:16:30.249Z,14.50
2022-08-31T22:19:38.884Z,15.40
2022-08-31T22:22:41.100Z,15.40
2022-08-31T22:25:43.719Z,16.30
2022-08-31T22:28:46.876Z,16.27
2022-08-31T22:31:54.528Z,18.20
2022-08-31T22:34:57.341Z,17.17
2022-08-31T22:37:59.318Z,17.83
2022-08-31T22:41:08.034Z,17.23
2022-08-31T22:44:12.804Z,16.83
2022-08-31T22:47:14.904Z,15.77
2022-08-31T22:50:16.899Z,15.73
2022-08-31T22:53:19.183Z,15.37
2022-08-31T22:56:25.981Z,15.27
2022-08-31T22:59:28.442Z,14.23
2022-08-31T23:02:31.322Z,13.70
2022-08-31T23:05:36.751Z,14.57
2022-08-31T23:08:39.819Z,13.13
2022-08-31T23:11:41.903Z,12.60
2022-08-31T23:14:43.889Z,12.37
2022-08-31T23:17:49.813Z,12.00
2022-08-31T23:20:53.010Z,13.00
2022-08-31T23:23:56.002Z,12.80
2022-08-31T23:27:04.223Z,12.07
2022-08-31T23:30:09.994Z,11.77
2022-08-31T23:33:12.024Z,12.10
2022-08-31T23:36:14.564Z,12.03
2022-08-31T23:39:19.500Z,11.53
2022-08-31T23:42:23.425Z,11.40
2022-08-31T23:45:25.634Z,12.00
2022-08-31T23:48:28.704Z,11.03
2022-08-31T23:51:30.856Z,11.63
2022-08-31T23:54:33.665Z,11.70
2022-08-31T23:57:36.595Z,11.43
